createdAt,value
2018-09-21T00:00:30.994Z,73.90
2018-09-21T00:03:01.710Z,73.90
2018-09-21T00:05:32.642Z,74.10
2018-09-21T00:08:03.081Z,74.10
2018-09-21T00:10:33.650Z,74.10
2018-09-21T00:13:04.459Z,74.10
2018-09-21T00:15:35.673Z,74.00
2018-09-21T00:18:06.749Z,73.80
2018-09-21T00:20:37.165Z,73.90
2018-09-21T00:23:07.817Z,73.80
2018-09-21T00:25:54.054Z,73.90
2018-09-21T00:28:24.654Z,74.00
2018-09-21T00:30:55.366Z,73.90
2018-09-21T00:33:26.002Z,73.90
2018-09-21T00:35:56.660Z,73.70
2018-09-21T00:38:27.271Z,73.80
2018-09-21T00:40:58.153Z,73.90
2018-09-21T00:43:28.947Z,74.60
2018-09-21T00:45:59.445Z,73.80
2018-09-21T00:48:30.737Z,73.80
2018-09-21T00:51:01.389Z,73.80
2018-09-21T00:53:31.824Z,73.80
2018-09-21T00:56:02.823Z,73.60
2018-09-21T00:58:33.371Z,73.80
2018-09-21T01:01:05.064Z,73.60
2018-09-21T01:03:36.378Z,73.60
2018-09-21T01:06:07.077Z,73.60
2018-09-21T01:08:37.862Z,73.60
2018-09-21T01:11:34.305Z,74.40
2018-09-21T01:14:05.589Z,73.60
2018-09-21T01:16:36.290Z,73.50
2018-09-21T01:19:07.285Z,73.40
2018-09-21T01:21:38.180Z,73.40
2018-09-21T01:24:09.311Z,73.40
2018-09-21T01:26:39.921Z,73.50
2018-09-21T01:29:10.529Z,73.50
2018-09-21T01:31:41.604Z,73.40
2018-09-21T01:34:12.344Z,73.40
2018-09-21T01:36:42.914Z,73.40
2018-09-21T01:39:13.690Z,73.40
2018-09-21T01:41:44.254Z,73.50
2018-09-21T01:44:15.014Z,73.40
2018-09-21T01:46:46.038Z,73.40
2018-09-21T01:49:17.577Z,73.40
2018-09-21T01:51:48.221Z,73.40
2018-09-21T01:54:19.290Z,73.40
2018-09-21T01:56:49.749Z,73.40
2018-09-21T01:59:20.940Z,73.40
2018-09-21T02:01:51.628Z,73.40
2018-09-21T02:04:26.387Z,73.40
2018-09-21T02:06:57.499Z,73.20
2018-09-21T02:09:28.633Z,73.20
2018-09-21T02:11:59.180Z,73.30
2018-09-21T02:14:30.070Z,73.20
2018-09-21T02:17:00.781Z,73.30
2018-09-21T02:19:31.533Z,73.30
2018-09-21T02:22:02.369Z,73.20
2018-09-21T02:24:32.954Z,73.30
2018-09-21T02:27:04.122Z,73.10
2018-09-21T02:29:34.563Z,73.10
2018-09-21T02:32:05.382Z,73.10
2018-09-21T02:34:36.024Z,73.10
2018-09-21T02:37:06.907Z,73.00
2018-09-21T02:39:37.591Z,73.00
2018-09-21T02:42:08.413Z,73.00
2018-09-21T02:44:39.284Z,72.90
2018-09-21T02:47:09.881Z,72.90
2018-09-21T02:49:40.424Z,73.00
2018-09-21T02:52:11.009Z,72.90
2018-09-21T02:54:41.662Z,72.90
2018-09-21T02:57:12.612Z,72.80
2018-09-21T02:59:43.137Z,72.90
2018-09-21T03:02:13.646Z,72.80
2018-09-21T03:04:49.114Z,72.80
2018-09-21T03:07:19.638Z,72.50
2018-09-21T03:09:50.254Z,72.80
2018-09-21T03:12:20.973Z,72.80
2018-09-21T03:14:52.174Z,72.80
2018-09-21T03:17:23.068Z,72.70
2018-09-21T03:19:53.701Z,72.60
2018-09-21T03:22:24.377Z,72.70
2018-09-21T03:24:55.261Z,72.80
2018-09-21T03:27:25.930Z,72.80
2018-09-21T03:29:56.452Z,72.70
2018-09-21T03:32:27.388Z,72.80
2018-09-21T03:34:57.990Z,72.80
2018-09-21T03:37:28.522Z,72.80
2018-09-21T03:39:59.045Z,72.70
2018-09-21T03:42:31.475Z,72.80
2018-09-21T03:45:02.135Z,72.80
2018-09-21T03:47:34.320Z,72.70
2018-09-21T03:50:05.505Z,72.80
2018-09-21T03:52:36.301Z,72.80
2018-09-21T03:55:07.502Z,72.70
2018-09-21T03:57:39.480Z,72.60
2018-09-21T04:00:10.489Z,72.70
2018-09-21T04:02:40.891Z,72.70
2018-09-21T04:05:12.297Z,72.60
2018-09-21T04:07:43.034Z,72.70
2018-09-21T04:10:14.195Z,72.80
2018-09-21T04:12:45.677Z,72.80
2018-09-21T04:15:16.266Z,72.70
2018-09-21T04:17:47.353Z,72.60
2018-09-21T04:20:18.128Z,72.70
2018-09-21T04:22:56.431Z,72.60
2018-09-21T04:25:27.371Z,72.70
2018-09-21T04:27:58.030Z,72.70
2018-09-21T04:30:29.340Z,72.70
2018-09-21T04:33:00.382Z,72.70
2018-09-21T04:35:30.916Z,72.80
2018-09-21T04:38:01.421Z,72.60
2018-09-21T04:40:32.495Z,72.70
2018-09-21T04:43:03.285Z,72.50
2018-09-21T04:45:33.813Z,72.60
2018-09-21T04:48:04.431Z,72.50
2018-09-21T04:50:35.277Z,72.50
2018-09-21T04:53:05.817Z,72.50
2018-09-21T04:55:36.541Z,72.60
2018-09-21T04:58:07.387Z,72.40
2018-09-21T05:00:38.023Z,72.50
2018-09-21T05:03:08.843Z,72.60
2018-09-21T05:05:39.472Z,72.50
2018-09-21T05:08:10.436Z,72.70
2018-09-21T05:10:41.666Z,72.60
2018-09-21T05:13:12.334Z,71.70
2018-09-21T05:15:42.903Z,71.80
2018-09-21T05:18:13.652Z,72.20
2018-09-21T05:20:44.582Z,72.40
2018-09-21T05:23:15.239Z,72.30
2018-09-21T05:25:46.209Z,72.50
2018-09-21T05:28:16.978Z,72.40
2018-09-21T05:30:48.235Z,72.30
2018-09-21T05:33:19.093Z,72.50
2018-09-21T05:35:49.934Z,72.50
2018-09-21T05:38:20.940Z,72.40
2018-09-21T05:40:51.515Z,72.50
2018-09-21T05:43:22.323Z,72.50
2018-09-21T05:45:55.163Z,72.50
2018-09-21T05:48:25.634Z,72.20
2018-09-21T05:50:57.710Z,72.30
2018-09-21T05:53:28.550Z,72.60
2018-09-21T05:56:01.297Z,72.50
2018-09-21T05:58:32.724Z,72.40
2018-09-21T06:01:03.463Z,72.40
2018-09-21T06:03:38.133Z,72.30
2018-09-21T06:06:08.791Z,72.30
2018-09-21T06:08:41.484Z,72.50
2018-09-21T06:11:15.568Z,72.50
2018-09-21T06:13:46.605Z,72.50
2018-09-21T06:16:17.281Z,72.50
2018-09-21T06:18:48.670Z,72.50
2018-09-21T06:21:19.815Z,72.50
2018-09-21T06:23:50.663Z,72.50
2018-09-21T06:26:21.741Z,72.40
2018-09-21T06:28:53.236Z,72.40
2018-09-21T06:31:24.234Z,72.50
2018-09-21T06:33:54.944Z,72.60
2018-09-21T06:36:25.563Z,72.60
2018-09-21T06:38:56.167Z,72.60
2018-09-21T06:41:27.121Z,72.70
2018-09-21T06:43:58.195Z,72.60
2018-09-21T06:46:29.065Z,72.90
2018-09-21T06:49:00.252Z,72.90
2018-09-21T06:51:31.426Z,72.90
2018-09-21T06:54:03.453Z,72.90
2018-09-21T06:56:34.172Z,73.10
2018-09-21T06:59:05.420Z,73.10
2018-09-21T07:01:36.187Z,73.10
2018-09-21T07:04:06.801Z,73.10
2018-09-21T07:06:37.556Z,73.30
2018-09-21T07:09:12.006Z,73.20
2018-09-21T07:11:43.331Z,73.30
2018-09-21T07:14:14.176Z,73.20
2018-09-21T07:16:45.090Z,73.40
2018-09-21T07:19:15.790Z,73.40
2018-09-21T07:21:46.310Z,73.40
2018-09-21T07:24:17.125Z,73.40
2018-09-21T07:26:47.564Z,73.50
2018-09-21T07:29:18.442Z,73.70
2018-09-21T07:31:49.033Z,73.70
2018-09-21T07:34:19.714Z,73.60
2018-09-21T07:36:50.564Z,73.90
2018-09-21T07:39:21.037Z,73.90
2018-09-21T07:41:51.948Z,73.80
2018-09-21T07:44:22.799Z,73.80
2018-09-21T07:46:53.576Z,73.90
2018-09-21T07:49:24.447Z,73.90
2018-09-21T07:51:55.502Z,74.00
2018-09-21T07:54:26.290Z,74.00
2018-09-21T07:56:56.940Z,73.90
2018-09-21T07:59:27.715Z,73.90
2018-09-21T08:01:59.085Z,73.90
2018-09-21T08:04:30.152Z,74.00
2018-09-21T08:07:00.991Z,73.90
2018-09-21T08:09:31.999Z,73.80
2018-09-21T08:12:02.945Z,73.70
2018-09-21T08:14:33.825Z,73.70
2018-09-21T08:17:04.334Z,73.80
2018-09-21T08:19:34.994Z,73.80
2018-09-21T08:22:05.864Z,73.60
2018-09-21T08:24:37.095Z,73.60
2018-09-21T08:27:09.767Z,73.70
2018-09-21T08:29:40.510Z,73.50
2018-09-21T08:32:11.317Z,73.40
2018-09-21T08:34:42.180Z,73.60
2018-09-21T08:37:13.669Z,73.90
2018-09-21T08:39:44.453Z,74.40
2018-09-21T08:42:15.177Z,74.50
2018-09-21T08:44:45.899Z,74.60
2018-09-21T08:47:17.368Z,74.50
2018-09-21T08:49:47.961Z,74.70
2018-09-21T08:52:18.878Z,75.10
2018-09-21T08:54:50.482Z,75.70
2018-09-21T08:57:21.417Z,76.30
2018-09-21T08:59:52.675Z,76.40
2018-09-21T09:02:23.386Z,77.20
2018-09-21T09:04:54.207Z,76.90
2018-09-21T09:07:24.803Z,77.20
2018-09-21T09:09:56.244Z,77.10
2018-09-21T09:12:26.863Z,77.10
2018-09-21T09:14:57.473Z,77.50
2018-09-21T09:17:28.411Z,77.80
2018-09-21T09:19:59.046Z,78.90
2018-09-21T09:22:34.897Z,78.60
2018-09-21T09:25:13.239Z,78.70
2018-09-21T09:27:44.460Z,78.60
2018-09-21T09:30:15.023Z,78.40
2018-09-21T09:32:46.469Z,79.20
2018-09-21T09:35:17.113Z,79.40
2018-09-21T09:37:47.898Z,78.90
2018-09-21T09:40:18.847Z,78.70
2018-09-21T09:42:50.014Z,78.60
2018-09-21T09:45:21.116Z,78.50
2018-09-21T09:48:08.560Z,78.70
2018-09-21T09:50:40.652Z,78.20
2018-09-21T09:53:11.536Z,78.30
2018-09-21T09:55:42.947Z,78.20
2018-09-21T09:58:13.621Z,78.00
2018-09-21T10:00:49.246Z,78.00
2018-09-21T10:03:20.753Z,78.00
2018-09-21T10:05:51.420Z,78.00
2018-09-21T10:08:22.107Z,78.00
2018-09-21T10:10:53.285Z,78.00
2018-09-21T10:13:23.913Z,78.00
2018-09-21T10:15:54.796Z,78.10
2018-09-21T10:18:25.462Z,78.00
2018-09-21T10:20:56.565Z,78.00
2018-09-21T10:23:27.602Z,78.00
2018-09-21T10:26:00.291Z,78.20
2018-09-21T10:28:32.186Z,77.90
2018-09-21T10:31:03.071Z,78.10
2018-09-21T10:33:34.697Z,77.90
2018-09-21T10:36:05.653Z,77.80
2018-09-21T10:38:36.201Z,77.70
2018-09-21T10:41:06.839Z,77.60
2018-09-21T10:43:37.715Z,77.70
2018-09-21T10:46:08.431Z,77.50
2018-09-21T10:48:39.458Z,77.50
2018-09-21T10:51:11.028Z,77.40
2018-09-21T10:53:41.860Z,77.10
2018-09-21T10:56:13.028Z,77.20
2018-09-21T10:58:44.163Z,77.10
2018-09-21T11:01:14.825Z,77.00
2018-09-21T11:03:45.939Z,77.00
2018-09-21T11:06:16.824Z,76.80
2018-09-21T11:08:47.778Z,76.60
2018-09-21T11:11:21.630Z,76.70
2018-09-21T11:13:53.027Z,76.60
2018-09-21T11:16:23.922Z,76.60
2018-09-21T11:18:55.531Z,76.40
2018-09-21T11:21:26.119Z,76.30
2018-09-21T11:23:57.154Z,76.20
2018-09-21T11:26:27.875Z,76.20
2018-09-21T11:28:58.572Z,76.10
2018-09-21T11:31:29.265Z,75.90
2018-09-21T11:33:59.687Z,76.00
2018-09-21T11:36:30.578Z,75.80
2018-09-21T11:39:01.366Z,75.80
2018-09-21T11:41:32.182Z,75.60
2018-09-21T11:44:03.171Z,75.10
2018-09-21T11:46:33.842Z,75.30
2018-09-21T11:49:04.562Z,74.90
2018-09-21T11:51:35.505Z,74.80
2018-09-21T11:54:06.644Z,74.40
2018-09-21T11:56:38.034Z,74.00
2018-09-21T11:59:09.249Z,73.60
2018-09-21T12:01:41.017Z,73.00
2018-09-21T12:04:17.638Z,73.40
2018-09-21T12:06:48.805Z,72.60
2018-09-21T12:09:19.643Z,72.50
2018-09-21T12:11:50.686Z,72.10
2018-09-21T12:14:21.518Z,72.20
2018-09-21T12:16:52.532Z,72.40
2018-09-21T12:19:23.612Z,72.60
2018-09-21T12:21:54.169Z,72.50
2018-09-21T12:24:25.365Z,72.40
2018-09-21T12:26:56.367Z,72.40
2018-09-21T12:29:26.928Z,72.40
2018-09-21T12:31:57.542Z,72.20
2018-09-21T12:34:28.756Z,72.00
2018-09-21T12:36:59.418Z,72.00
2018-09-21T12:39:30.200Z,71.90
2018-09-21T12:42:01.085Z,71.80
2018-09-21T12:44:32.218Z,71.90
2018-09-21T12:47:03.043Z,71.90
2018-09-21T12:49:35.231Z,71.10
2018-09-21T12:52:06.025Z,71.30
2018-09-21T12:54:37.253Z,71.00
2018-09-21T12:57:08.237Z,70.60
2018-09-21T12:59:39.446Z,70.70
2018-09-21T13:02:10.379Z,70.50
2018-09-21T13:04:41.464Z,70.00
2018-09-21T13:07:12.240Z,69.90
2018-09-21T13:09:42.944Z,69.50
2018-09-21T13:12:14.375Z,69.50
2018-09-21T13:14:45.320Z,69.00
2018-09-21T13:17:15.991Z,69.50
2018-09-21T13:19:46.492Z,69.20
2018-09-21T13:22:17.570Z,69.00
2018-09-21T13:24:48.830Z,68.40
2018-09-21T13:27:19.544Z,68.90
2018-09-21T13:29:50.272Z,68.70
2018-09-21T13:32:21.511Z,68.40
2018-09-21T13:34:52.462Z,68.00
2018-09-21T13:37:23.418Z,68.50
2018-09-21T13:39:54.313Z,69.00
2018-09-21T13:42:25.380Z,68.30
2018-09-21T13:44:55.952Z,67.00
2018-09-21T13:47:27.221Z,67.70
2018-09-21T13:49:58.011Z,65.30
2018-09-21T13:52:34.360Z,67.30
2018-09-21T13:55:06.526Z,67.70
2018-09-21T13:57:38.859Z,67.50
2018-09-21T14:00:12.123Z,67.70
2018-09-21T14:02:45.218Z,67.50
2018-09-21T14:05:17.156Z,67.10
2018-09-21T14:07:49.582Z,68.40
2018-09-21T14:10:20.497Z,68.70
2018-09-21T14:12:51.579Z,69.00
2018-09-21T14:15:22.572Z,69.30
2018-09-21T14:17:53.541Z,69.40
2018-09-21T14:20:24.376Z,69.60
2018-09-21T14:22:55.018Z,69.60
2018-09-21T14:25:26.395Z,69.90
2018-09-21T14:27:57.585Z,69.50
2018-09-21T14:30:28.276Z,70.00
2018-09-21T14:32:59.163Z,70.20
2018-09-21T14:35:30.074Z,70.30
2018-09-21T14:38:01.805Z,70.20
2018-09-21T14:40:32.362Z,70.20
2018-09-21T14:43:03.240Z,70.50
2018-09-21T14:45:34.308Z,70.40
2018-09-21T14:48:05.186Z,70.60
2018-09-21T14:50:42.423Z,70.70
2018-09-21T14:53:13.471Z,70.60
2018-09-21T14:55:44.274Z,70.70
2018-09-21T14:58:15.121Z,70.60
2018-09-21T15:00:45.866Z,70.50
2018-09-21T15:03:17.691Z,71.50
2018-09-21T15:05:48.679Z,70.90
2018-09-21T15:08:19.518Z,70.90
2018-09-21T15:10:50.788Z,71.00
2018-09-21T15:13:21.951Z,71.10
2018-09-21T15:15:52.964Z,71.10
2018-09-21T15:18:24.383Z,71.00
2018-09-21T15:20:55.097Z,71.10
2018-09-21T15:23:26.176Z,71.10
2018-09-21T15:25:56.738Z,71.10
2018-09-21T15:28:27.409Z,71.00
2018-09-21T15:30:58.487Z,71.20
2018-09-21T15:33:30.460Z,71.10
2018-09-21T15:36:01.262Z,71.10
2018-09-21T15:38:32.054Z,71.10
2018-09-21T15:41:02.800Z,71.10
2018-09-21T15:43:33.824Z,71.70
2018-09-21T15:46:04.984Z,71.10
2018-09-21T15:48:36.152Z,71.00
2018-09-21T15:51:07.116Z,71.20
2018-09-21T15:53:38.842Z,70.50
2018-09-21T15:56:10.035Z,71.20
2018-09-21T15:58:41.095Z,71.20
2018-09-21T16:01:12.569Z,71.10
2018-09-21T16:03:43.957Z,71.10
2018-09-21T16:06:14.630Z,71.30
2018-09-21T16:08:45.354Z,70.70
2018-09-21T16:11:16.178Z,71.20
2018-09-21T16:13:47.585Z,71.20
2018-09-21T16:16:18.628Z,71.20
2018-09-21T16:18:49.609Z,71.10
2018-09-21T16:21:20.438Z,70.50
2018-09-21T16:23:51.328Z,70.80
2018-09-21T16:26:22.153Z,70.70
2018-09-21T16:28:53.428Z,70.20
2018-09-21T16:31:24.003Z,70.50
2018-09-21T16:33:54.882Z,70.00
2018-09-21T16:36:25.585Z,70.10
2018-09-21T16:38:57.701Z,70.10
2018-09-21T16:41:28.166Z,70.00
2018-09-21T16:43:59.545Z,69.70
2018-09-21T16:46:30.549Z,69.60
2018-09-21T16:49:01.551Z,69.40
2018-09-21T16:51:32.361Z,69.70
2018-09-21T16:54:03.686Z,69.70
2018-09-21T16:56:34.482Z,69.50
2018-09-21T16:59:05.507Z,69.20
2018-09-21T17:01:36.214Z,69.30
2018-09-21T17:04:07.967Z,68.50
2018-09-21T17:06:39.250Z,69.00
2018-09-21T17:09:11.943Z,69.00
2018-09-21T17:11:43.019Z,69.00
2018-09-21T17:14:14.888Z,69.10
2018-09-21T17:16:46.502Z,69.10
2018-09-21T17:19:17.965Z,69.10
2018-09-21T17:21:49.305Z,69.30
2018-09-21T17:24:21.088Z,68.90
2018-09-21T17:26:52.096Z,69.00
2018-09-21T17:29:23.055Z,68.50
2018-09-21T17:31:54.375Z,68.80
2018-09-21T17:34:25.464Z,68.60
2018-09-21T17:36:56.521Z,68.20
2018-09-21T17:39:27.387Z,68.40
2018-09-21T17:41:58.353Z,68.50
2018-09-21T17:44:29.155Z,68.40
2018-09-21T17:47:00.484Z,68.10
2018-09-21T17:49:35.833Z,68.00
2018-09-21T17:52:06.815Z,68.10
2018-09-21T17:54:38.267Z,67.80
2018-09-21T18:00:16.741Z,68.10
2018-09-21T18:02:47.639Z,67.90
2018-09-21T18:05:18.788Z,67.70
2018-09-21T18:07:50.425Z,67.70
2018-09-21T18:10:21.543Z,67.70
2018-09-21T18:12:52.570Z,67.50
2018-09-21T18:15:24.087Z,67.30
2018-09-21T18:17:54.940Z,67.90
2018-09-21T18:20:27.161Z,67.50
2018-09-21T18:22:57.904Z,67.60
2018-09-21T18:25:28.819Z,67.40
2018-09-21T18:28:00.722Z,67.60
2018-09-21T18:30:31.817Z,67.50
2018-09-21T18:33:03.526Z,67.20
2018-09-21T18:35:50.408Z,67.40
2018-09-21T18:38:21.617Z,67.80
2018-09-21T18:40:52.522Z,67.60
2018-09-21T18:43:23.358Z,67.40
2018-09-21T18:45:54.374Z,67.20
2018-09-21T18:48:25.541Z,67.30
2018-09-21T18:50:56.580Z,67.50
2018-09-21T18:53:32.465Z,67.60
2018-09-21T18:56:03.613Z,67.10
2018-09-21T18:58:34.687Z,67.10
2018-09-21T19:01:05.741Z,66.60
2018-09-21T19:03:37.097Z,66.30
2018-09-21T19:06:09.041Z,67.40
2018-09-21T19:08:40.169Z,66.60
2018-09-21T19:11:11.231Z,66.60
2018-09-21T19:13:42.128Z,66.90
2018-09-21T19:16:13.073Z,66.40
2018-09-21T19:18:44.494Z,66.80
2018-09-21T19:21:15.393Z,67.00
2018-09-21T19:23:46.552Z,66.90
2018-09-21T19:26:17.759Z,67.00
2018-09-21T19:28:48.664Z,67.00
2018-09-21T19:31:20.601Z,67.40
2018-09-21T19:33:51.477Z,67.30
2018-09-21T19:36:22.533Z,67.50
2018-09-21T19:38:53.619Z,68.10
2018-09-21T19:41:33.438Z,67.80
2018-09-21T19:44:07.347Z,67.70
2018-09-21T19:46:38.773Z,67.90
2018-09-21T19:49:09.825Z,67.90
2018-09-21T19:51:40.817Z,67.80
2018-09-21T19:54:11.517Z,68.20
2018-09-21T19:56:42.632Z,68.20
2018-09-21T19:59:20.608Z,68.40
2018-09-21T20:01:51.975Z,68.30
2018-09-21T20:04:23.556Z,68.40
2018-09-21T20:06:55.644Z,68.50
2018-09-21T20:09:26.936Z,68.50
2018-09-21T20:11:57.778Z,68.50
2018-09-21T20:14:28.909Z,68.60
2018-09-21T20:16:59.845Z,68.60
2018-09-21T20:19:31.120Z,68.70
2018-09-21T20:22:02.468Z,68.60
2018-09-21T20:24:33.904Z,68.60
2018-09-21T20:27:10.971Z,68.80
2018-09-21T20:29:41.574Z,68.90
2018-09-21T20:32:17.438Z,68.80
2018-09-21T20:34:48.297Z,69.00
2018-09-21T20:37:19.123Z,69.10
2018-09-21T20:39:50.109Z,69.10
2018-09-21T20:42:21.207Z,69.10
2018-09-21T20:44:53.111Z,69.20
2018-09-21T20:47:24.165Z,69.50
2018-09-21T20:49:54.887Z,69.70
2018-09-21T20:52:25.782Z,70.30
2018-09-21T20:54:56.544Z,71.40
2018-09-21T20:57:27.655Z,72.20
2018-09-21T20:59:58.829Z,72.50
2018-09-21T21:02:30.136Z,73.20
2018-09-21T21:05:00.848Z,73.20
2018-09-21T21:07:31.820Z,73.50
2018-09-21T21:10:02.945Z,73.10
2018-09-21T21:12:34.537Z,73.30
2018-09-21T21:15:05.968Z,73.30
2018-09-21T21:17:36.885Z,74.50
2018-09-21T21:20:07.853Z,74.20
2018-09-21T21:22:38.671Z,74.20
2018-09-21T21:25:09.610Z,73.60
2018-09-21T21:27:40.364Z,73.50
2018-09-21T21:30:11.254Z,74.40
2018-09-21T21:32:42.047Z,74.50
2018-09-21T21:35:12.855Z,75.10
2018-09-21T21:37:44.255Z,74.60
2018-09-21T21:40:15.086Z,74.50
2018-09-21T21:42:45.964Z,74.80
2018-09-21T21:45:20.334Z,75.00
2018-09-21T21:47:51.097Z,75.50
2018-09-21T21:50:22.092Z,74.70
2018-09-21T21:52:53.276Z,75.00
2018-09-21T21:55:24.259Z,75.20
2018-09-21T21:57:55.029Z,75.60
2018-09-21T22:00:30.060Z,75.40
2018-09-21T22:03:01.978Z,76.40
2018-09-21T22:05:32.947Z,75.50
2018-09-21T22:08:03.732Z,75.50
2018-09-21T22:10:34.876Z,75.70
2018-09-21T22:13:10.818Z,75.20
2018-09-21T22:15:41.925Z,75.30
2018-09-21T22:18:12.854Z,75.40
2018-09-21T22:20:43.541Z,75.90
2018-09-21T22:23:14.190Z,75.60
2018-09-21T22:25:45.243Z,76.00
2018-09-21T22:28:15.772Z,75.20
2018-09-21T22:30:47.301Z,75.70
2018-09-21T22:33:18.801Z,75.30
2018-09-21T22:35:49.798Z,75.60
2018-09-21T22:38:20.812Z,75.90
2018-09-21T22:40:51.696Z,76.00
2018-09-21T22:43:22.447Z,76.30
2018-09-21T22:45:53.559Z,75.90
2018-09-21T22:48:24.920Z,76.10
2018-09-21T22:50:55.702Z,76.10
2018-09-21T22:53:26.568Z,76.20
2018-09-21T22:55:57.207Z,76.20
2018-09-21T22:58:28.280Z,76.00
2018-09-21T23:00:59.707Z,76.00
2018-09-21T23:03:30.544Z,76.00
2018-09-21T23:06:01.441Z,75.90
2018-09-21T23:08:32.235Z,76.00
2018-09-21T23:11:03.157Z,75.80
2018-09-21T23:13:33.926Z,76.30
2018-09-21T23:16:04.860Z,76.20
2018-09-21T23:18:35.701Z,76.10
2018-09-21T23:21:06.479Z,75.60
2018-09-21T23:23:37.055Z,75.60
2018-09-21T23:26:07.963Z,75.50
2018-09-21T23:28:38.854Z,75.40
2018-09-21T23:31:09.735Z,75.50
2018-09-21T23:33:40.300Z,75.50
2018-09-21T23:36:11.010Z,75.30
2018-09-21T23:38:41.921Z,75.30
2018-09-21T23:41:12.917Z,75.30
2018-09-21T23:43:44.027Z,75.40
2018-09-21T23:46:14.609Z,75.60
2018-09-21T23:48:45.152Z,75.40
2018-09-21T23:51:15.724Z,75.60
2018-09-21T23:53:46.422Z,75.50
2018-09-21T23:56:16.899Z,75.50
2018-09-21T23:58:47.965Z,75.70
